Ledoux, New Mexico
Current Conditions -  °F | °C
As of 7:55 AM on Tuesday 21 Oct 2014 (Local Time) from KAXX Reporting Station
Moderate Fog Moderate Fog  
Wind Chill: 32°   Ceiling: 100
Heat Index: 32°   Visibility: 0mi
Dew Point: 31°   Wind: 0mph
Humidity: 95%   Direction: NA
Pressure: 30.31"   Gusts: NA
Location:  36.0379°N, 105.295°W
Report Text: KAXX 211355Z AUTO 00000KT M1/4SM FG OVC001 00/M01 A3031 RMK AO2 T00001007
Loading
Personal Weather Stations






























Interactive Weather Map
Tropical Storm Tracking
New forecast layout! Learn more

10-Day Weather Forecast

Advertisements
Track Severe Weather on mobile